Albany, New York
Traffic Map
Current Weather Conditions
Albany, New York
Overcast
Overcast
69°
Feels Like: 69°
Wind Chill: 69° Ceiling: 3700
Heat Index: 69° Visibility: 10mi
Dew Point: 52° Wind: 15mph
Humidity: 54% Direction: 260° (W)
Pressure: 29.62in Gusts: 0mph
Raw Report DataKALB 220151Z 26013KT 10SM FEW018 BKN037 OVC070 21/11 A2962 RMK AO2 WSHFT 0108 RAB19E31 SLP029 P0001 T02060111 $
Traffic Incident Summary
Active as of:
Severity:
Category:
InformationThere was an issue retrieving the traffic information for this location. Please try a different location or try again shortly.
Advertisements
Track Severe Weather on mobile